Time;durP1;ratioP1;P1;durP2;ratioP2;P2;SDS_P1;SDS_P2;PMS_P1;PMS_P2;Temp;Humidity;BMP_temperature;BMP_pressure;BME280_temperature;BME280_humidity;BME280_pressure;Samples;Min_cycle;Max_cycle;Signal;HPM_P1;HPM_P2
2022/03/04 00:00:27;;;;;;;29.85;22.67;;;10.10;99.90;;;;;;4936758;29;20571;-66
2022/03/04 00:02:54;;;;;;;29.48;22.08;;;10.10;99.90;;;;;;4951862;28;20043;-66
2022/03/04 00:05:22;;;;;;;28.25;22.35;;;10.10;99.90;;;;;;4927225;28;20075;-66
2022/03/04 00:07:49;;;;;;;28.10;21.73;;;10.10;99.90;;;;;;4934715;29;20122;-67
2022/03/04 00:10:16;;;;;;;30.38;22.45;;;10.20;99.90;;;;;;4964911;28;20166;-68
2022/03/04 00:12:43;;;;;;;27.10;21.80;;;10.20;99.90;;;;;;4953667;28;20202;-67
2022/03/04 00:15:10;;;;;;;26.02;22.08;;;10.20;99.90;;;;;;4955298;28;20055;-67
2022/03/04 00:17:38;;;;;;;26.80;21.88;;;10.20;99.90;;;;;;4957050;28;20066;-66
2022/03/04 00:20:06;;;;;;;26.15;22.00;;;10.20;99.90;;;;;;4969882;28;20048;-66
2022/03/04 00:22:33;;;;;;;38.63;22.38;;;10.20;99.90;;;;;;4974140;28;20445;-67
2022/03/04 00:25:00;;;;;;;31.88;25.58;;;10.20;99.90;;;;;;4948232;29;20093;-66
2022/03/04 00:27:30;;;;;;;32.13;22.75;;;10.20;99.90;;;;;;4950452;28;20436;-66
2022/03/04 00:29:57;;;;;;;26.83;21.80;;;10.20;99.90;;;;;;4970804;28;20046;-66
2022/03/04 00:32:23;;;;;;;28.95;22.88;;;10.20;99.90;;;;;;4956271;28;20089;-66
2022/03/04 00:34:51;;;;;;;26.98;22.23;;;10.20;99.90;;;;;;4970567;28;20102;-66
2022/03/04 00:37:18;;;;;;;28.08;22.10;;;10.20;99.90;;;;;;4986226;28;20051;-66
2022/03/04 00:39:45;;;;;;;30.65;23.55;;;10.20;99.90;;;;;;4986932;28;20138;-66
2022/03/04 00:42:12;;;;;;;27.55;22.45;;;10.10;99.90;;;;;;4953650;28;20055;-66
2022/03/04 00:44:39;;;;;;;30.25;23.27;;;10.00;99.90;;;;;;4954944;29;20159;-66
2022/03/04 00:47:06;;;;;;;29.02;23.48;;;10.00;99.90;;;;;;4955750;28;20052;-66
2022/03/04 00:49:34;;;;;;;27.30;22.05;;;9.90;99.90;;;;;;4947840;28;20050;-66
2022/03/04 00:52:01;;;;;;;29.60;22.90;;;9.90;99.90;;;;;;4960109;28;20531;-66
2022/03/04 00:54:28;;;;;;;29.15;22.77;;;9.90;99.90;;;;;;4968429;28;20069;-66
2022/03/04 00:56:55;;;;;;;27.67;22.83;;;9.90;99.90;;;;;;4943386;29;20708;-66
2022/03/04 00:59:22;;;;;;;28.08;23.02;;;9.90;99.90;;;;;;4969613;28;20065;-66
2022/03/04 01:01:52;;;;;;;;;;;9.90;99.90;;;;;;4969836;28;20062;-66
2022/03/04 01:04:19;;;;;;;29.67;22.23;;;9.90;99.90;;;;;;4970612;28;19933;-66
2022/03/04 01:06:46;;;;;;;27.17;22.35;;;9.90;99.90;;;;;;4965444;28;20054;-66
2022/03/04 01:09:13;;;;;;;28.67;22.23;;;9.90;99.90;;;;;;4963734;28;20047;-66
2022/03/04 01:11:40;;;;;;;26.77;21.90;;;9.90;99.90;;;;;;4951158;28;20047;-66
2022/03/04 01:14:07;;;;;;;31.23;24.45;;;9.90;99.90;;;;;;4977312;28;20047;-66
2022/03/04 01:16:34;;;;;;;21.60;18.25;;;9.90;99.90;;;;;;4963718;28;20087;-66
2022/03/04 01:19:03;;;;;;;26.48;20.35;;;9.90;99.90;;;;;;4985128;28;20078;-66
2022/03/04 01:21:30;;;;;;;29.65;21.58;;;9.90;99.90;;;;;;4986257;28;20405;-66
2022/03/04 01:23:57;;;;;;;27.23;21.77;;;9.80;99.90;;;;;;4955325;28;20078;-66
2022/03/04 01:26:24;;;;;;;30.00;23.20;;;9.80;99.90;;;;;;4946967;28;20130;-66
2022/03/04 01:28:52;;;;;;;28.13;25.05;;;9.80;99.90;;;;;;4954986;28;20619;-66
2022/03/04 01:31:19;;;;;;;32.58;25.85;;;9.70;99.90;;;;;;4984553;28;20059;-67
2022/03/04 01:33:46;;;;;;;33.55;26.08;;;9.70;99.90;;;;;;4955765;28;20138;-66
2022/03/04 01:36:13;;;;;;;32.15;25.95;;;9.70;99.90;;;;;;4968806;28;20130;-66
2022/03/04 01:38:40;;;;;;;35.95;29.50;;;9.70;99.90;;;;;;4954341;28;20055;-66
2022/03/04 01:41:08;;;;;;;38.17;28.00;;;9.70;99.90;;;;;;4982986;28;20113;-66
2022/03/04 01:43:35;;;;;;;41.85;31.27;;;9.70;99.90;;;;;;4971663;28;20137;-66
2022/03/04 01:46:12;;;;;;;39.72;29.95;;;9.70;99.90;;;;;;4955565;28;20043;-67
2022/03/04 01:48:40;;;;;;;38.38;28.88;;;9.70;99.90;;;;;;4955867;28;20055;-66
2022/03/04 01:51:08;;;;;;;38.92;30.45;;;9.70;99.90;;;;;;4958291;28;20495;-66
2022/03/04 01:53:35;;;;;;;43.95;33.13;;;9.70;99.90;;;;;;4971454;28;20063;-66
2022/03/04 01:56:02;;;;;;;37.88;30.00;;;9.70;99.90;;;;;;4953298;28;20105;-66
2022/03/04 01:58:29;;;;;;;36.20;28.27;;;9.80;99.90;;;;;;4984985;28;20055;-66
2022/03/04 02:01:00;;;;;;;39.08;28.50;;;9.80;99.90;;;;;;4956657;28;20133;-66
2022/03/04 02:03:27;;;;;;;35.70;28.15;;;9.90;99.90;;;;;;4984072;28;20055;-66
2022/03/04 02:05:54;;;;;;;36.30;28.17;;;9.90;99.90;;;;;;4951979;28;20066;-66
2022/03/04 02:08:21;;;;;;;35.67;27.88;;;9.90;99.90;;;;;;4940723;28;20122;-66
2022/03/04 02:10:48;;;;;;;35.47;26.92;;;9.90;99.90;;;;;;4957821;28;20496;-66
2022/03/04 02:13:16;;;;;;;33.38;25.08;;;9.90;99.90;;;;;;4946403;29;20146;-66
2022/03/04 02:15:44;;;;;;;29.33;23.52;;;9.90;99.90;;;;;;4937668;29;20505;-66
2022/03/04 02:18:12;;;;;;;33.28;25.55;;;9.90;99.90;;;;;;4968529;28;20047;-66
2022/03/04 02:20:42;;;;;;;28.95;22.90;;;9.90;99.90;;;;;;4959363;28;20053;-66
2022/03/04 02:23:12;;;;;;;31.50;24.60;;;9.90;99.90;;;;;;4938068;29;20074;-66
2022/03/04 02:25:40;;;;;;;33.15;24.80;;;10.00;99.90;;;;;;4983494;28;20503;-65
2022/03/04 02:28:07;;;;;;;30.92;24.55;;;10.00;99.90;;;;;;4954400;28;20057;-65
2022/03/04 02:30:36;;;;;;;31.23;24.88;;;10.00;99.90;;;;;;4942901;28;20422;-65
2022/03/04 02:33:05;;;;;;;35.17;26.40;;;10.00;99.90;;;;;;4967210;28;20510;-65
2022/03/04 02:35:33;;;;;;;39.90;28.48;;;10.00;99.90;;;;;;4985799;28;20055;-65
2022/03/04 02:38:00;;;;;;;32.38;26.25;;;10.00;99.90;;;;;;4938298;29;20055;-66
2022/03/04 02:40:27;;;;;;;32.55;24.45;;;10.00;99.90;;;;;;4984262;28;20057;-66
2022/03/04 02:42:54;;;;;;;36.78;27.40;;;10.00;99.90;;;;;;4953669;28;20065;-66
2022/03/04 02:45:22;;;;;;;39.13;28.88;;;10.00;99.90;;;;;;4948907;29;20055;-66
2022/03/04 02:47:49;;;;;;;44.53;31.00;;;10.00;99.90;;;;;;4950114;28;20491;-66
2022/03/04 02:50:17;;;;;;;38.78;29.13;;;10.00;99.90;;;;;;4976625;28;20192;-66
2022/03/04 02:52:44;;;;;;;35.15;27.15;;;9.90;99.90;;;;;;4984331;28;20047;-66
2022/03/04 02:55:12;;;;;;;37.85;28.05;;;9.90;99.90;;;;;;4952280;28;20387;-65
2022/03/04 02:57:43;;;;;;;39.63;28.17;;;9.90;99.90;;;;;;4953481;28;20047;-66
2022/03/04 03:00:10;;;;;;;41.28;29.23;;;9.90;99.90;;;;;;4951918;28;20089;-66
2022/03/04 03:02:37;;;;;;;31.05;24.92;;;9.90;99.90;;;;;;4962638;28;20732;-66
2022/03/04 03:05:05;;;;;;;38.40;28.48;;;9.90;99.90;;;;;;4954230;28;20054;-66
2022/03/04 03:07:32;;;;;;;38.80;28.25;;;9.90;99.90;;;;;;4953214;28;20057;-66
2022/03/04 03:09:59;;;;;;;37.17;28.17;;;9.90;99.90;;;;;;4932994;29;20052;-66
2022/03/04 03:12:26;;;;;;;33.47;25.98;;;9.80;99.90;;;;;;4964606;28;20050;-66
2022/03/04 03:14:53;;;;;;;35.15;26.98;;;9.80;99.90;;;;;;4965725;28;20055;-66
2022/03/04 03:17:20;;;;;;;37.88;30.25;;;9.70;99.90;;;;;;4947145;28;20057;-65
2022/03/04 03:19:47;;;;;;;36.70;27.90;;;9.70;99.90;;;;;;4955432;28;20046;-65
2022/03/04 03:22:16;;;;;;;34.35;27.13;;;9.70;99.90;;;;;;4983015;28;21844;-65
2022/03/04 03:24:43;;;;;;;40.30;26.00;;;9.80;99.90;;;;;;4966895;28;20131;-66
2022/03/04 03:27:10;;;;;;;37.33;26.30;;;9.70;99.90;;;;;;4953831;28;20051;-65
2022/03/04 03:29:38;;;;;;;33.67;24.63;;;9.70;99.90;;;;;;4983928;28;20491;-65
2022/03/04 03:32:05;;;;;;;34.42;24.90;;;9.70;99.90;;;;;;4985349;28;20066;-65
2022/03/04 03:34:32;;;;;;;31.85;24.33;;;9.70;99.90;;;;;;4962537;28;20050;-65
2022/03/04 03:36:59;;;;;;;33.72;24.73;;;9.80;99.90;;;;;;4958323;28;20524;-66
2022/03/04 03:39:38;;;;;;;36.00;26.40;;;9.80;99.90;;;;;;4938923;28;20501;-65
2022/03/04 03:42:05;;;;;;;33.00;25.70;;;9.80;99.90;;;;;;4954337;28;20043;-66
2022/03/04 03:44:32;;;;;;;31.50;24.02;;;9.80;99.90;;;;;;4967633;28;20126;-65
2022/03/04 03:46:59;;;;;;;33.35;22.90;;;9.80;99.90;;;;;;4957889;28;20070;-66
2022/03/04 03:49:26;;;;;;;28.80;21.55;;;9.80;99.90;;;;;;4959526;28;20069;-66
2022/03/04 03:51:53;;;;;;;27.98;22.65;;;9.80;99.90;;;;;;4940328;28;20053;-65
2022/03/04 03:54:20;;;;;;;30.10;21.65;;;9.80;99.90;;;;;;4961355;28;20043;-65
2022/03/04 03:56:47;;;;;;;29.40;22.67;;;9.80;99.90;;;;;;4949440;29;20380;-65
2022/03/04 03:59:14;;;;;;;27.48;21.50;;;9.80;99.90;;;;;;4961882;28;20054;-65
2022/03/04 04:01:41;;;;;;;27.55;21.85;;;9.80;99.90;;;;;;4953821;28;20126;-65
2022/03/04 04:04:11;;;;;;;31.25;23.55;;;9.80;99.90;;;;;;4952967;28;20046;-65
2022/03/04 04:06:39;;;;;;;30.35;24.02;;;9.80;99.90;;;;;;4969203;28;20050;-65
2022/03/04 04:09:08;;;;;;;26.00;19.73;;;9.70;99.90;;;;;;4971194;28;20054;-65
2022/03/04 04:11:36;;;;;;;26.25;21.27;;;9.80;99.90;;;;;;4953903;28;20090;-65
2022/03/04 04:14:06;;;;;;;26.73;20.15;;;9.80;99.90;;;;;;4967608;28;20050;-65
2022/03/04 04:16:34;;;;;;;27.08;20.05;;;9.80;99.90;;;;;;4977535;28;20055;-65
2022/03/04 04:19:01;;;;;;;26.98;19.85;;;9.80;99.90;;;;;;4953847;28;20055;-64
2022/03/04 04:21:28;;;;;;;26.58;19.25;;;9.80;99.90;;;;;;4963636;28;20046;-65
2022/03/04 04:23:56;;;;;;;29.85;20.00;;;9.80;99.90;;;;;;4968786;28;20062;-65
2022/03/04 04:26:22;;;;;;;27.63;20.98;;;9.80;99.90;;;;;;4947958;29;20056;-65
2022/03/04 04:28:51;;;;;;;28.25;19.38;;;9.80;99.90;;;;;;4960056;28;20130;-65
2022/03/04 04:31:18;;;;;;;28.85;21.55;;;9.70;99.90;;;;;;4983256;28;20444;-65
2022/03/04 04:33:45;;;;;;;27.58;22.42;;;9.70;99.90;;;;;;4952515;28;20055;-65
2022/03/04 04:36:12;;;;;;;26.15;20.20;;;9.70;99.90;;;;;;4982990;28;20047;-65
2022/03/04 04:38:39;;;;;;;28.65;20.45;;;9.70;99.90;;;;;;4951597;28;20104;-65
2022/03/04 04:41:06;;;;;;;24.92;19.80;;;9.80;99.90;;;;;;4935454;28;20098;-65
2022/03/04 04:43:33;;;;;;;29.05;21.15;;;9.80;99.90;;;;;;4952978;28;20063;-65
2022/03/04 04:46:01;;;;;;;31.10;22.15;;;9.80;99.90;;;;;;4918010;28;20045;-65
2022/03/04 04:48:28;;;;;;;31.00;22.08;;;9.80;99.90;;;;;;4982896;28;20415;-65
2022/03/04 04:50:57;;;;;;;26.80;20.42;;;9.70;99.90;;;;;;4960884;28;20062;-65
2022/03/04 04:53:25;;;;;;;26.98;21.40;;;9.70;99.90;;;;;;4963685;28;20356;-65
2022/03/04 04:55:52;;;;;;;32.75;24.20;;;9.70;99.90;;;;;;4953467;28;20491;-65
2022/03/04 04:58:19;;;;;;;26.85;21.38;;;9.80;99.90;;;;;;4982976;28;20130;-65
2022/03/04 05:00:50;;;;;;;30.58;21.77;;;9.80;99.90;;;;;;4957109;28;20426;-66
2022/03/04 05:03:17;;;;;;;29.20;21.95;;;9.80;99.90;;;;;;4985779;28;20543;-65
2022/03/04 05:05:44;;;;;;;26.83;21.83;;;9.70;99.90;;;;;;4955247;28;20112;-65
2022/03/04 05:08:11;;;;;;;25.75;20.88;;;9.80;99.90;;;;;;4971265;28;20157;-65
2022/03/04 05:10:38;;;;;;;28.08;22.23;;;9.80;99.90;;;;;;4968131;28;20042;-66
2022/03/04 05:13:05;;;;;;;28.60;21.08;;;9.70;99.90;;;;;;4956385;28;20070;-65
2022/03/04 05:15:34;;;;;;;30.07;21.77;;;9.70;99.90;;;;;;4955835;28;20086;-66
2022/03/04 05:18:01;;;;;;;30.88;22.60;;;9.70;99.90;;;;;;4988468;28;20113;-65
2022/03/04 05:20:28;;;;;;;33.47;22.65;;;9.70;99.90;;;;;;4974893;28;20089;-65
2022/03/04 05:22:55;;;;;;;29.63;20.95;;;9.70;99.90;;;;;;4961253;28;20135;-65
2022/03/04 05:25:22;;;;;;;25.75;20.23;;;9.70;99.90;;;;;;4986144;28;20039;-65
2022/03/04 05:27:50;;;;;;;29.45;22.05;;;9.70;99.90;;;;;;4986175;28;20066;-65
2022/03/04 05:30:17;;;;;;;29.25;21.52;;;9.70;99.90;;;;;;4970083;28;20528;-65
2022/03/04 05:32:44;;;;;;;29.20;21.13;;;9.70;99.90;;;;;;4955589;28;20051;-65
2022/03/04 05:35:11;;;;;;;25.35;20.23;;;9.70;99.90;;;;;;4986070;28;20440;-65
2022/03/04 05:37:38;;;;;;;27.73;20.52;;;9.70;99.90;;;;;;4967446;28;20055;-65
2022/03/04 05:40:06;;;;;;;31.52;23.00;;;9.70;99.90;;;;;;4945107;28;20137;-65
2022/03/04 05:42:33;;;;;;;28.25;21.35;;;9.60;99.90;;;;;;4988478;28;20062;-65
2022/03/04 05:45:00;;;;;;;28.02;22.02;;;9.60;99.90;;;;;;4966065;28;20059;-65
2022/03/04 05:47:28;;;;;;;29.70;22.50;;;9.60;99.90;;;;;;4969276;28;20058;-65
2022/03/04 05:49:55;;;;;;;29.00;21.88;;;9.60;99.90;;;;;;4964461;28;20047;-66
2022/03/04 05:52:22;;;;;;;30.67;22.25;;;9.60;99.90;;;;;;4957718;28;20142;-65
2022/03/04 05:54:49;;;;;;;30.40;22.27;;;9.60;99.90;;;;;;4973792;28;20146;-65
2022/03/04 05:57:16;;;;;;;29.45;21.13;;;9.60;99.90;;;;;;4968554;28;20075;-65
2022/03/04 05:59:43;;;;;;;29.35;21.70;;;9.60;99.90;;;;;;4986116;28;20055;-65
2022/03/04 06:02:10;;;;;;;32.50;22.38;;;9.60;99.90;;;;;;4939228;29;20415;-65
2022/03/04 06:04:38;;;;;;;31.88;23.15;;;9.50;99.90;;;;;;4953316;28;20047;-65
2022/03/04 06:07:05;;;;;;;29.70;23.00;;;9.60;99.90;;;;;;4969030;28;20069;-65
2022/03/04 06:09:32;;;;;;;28.17;20.33;;;9.60;99.90;;;;;;4938634;29;20507;-65
2022/03/04 06:11:59;;;;;;;30.30;22.27;;;9.60;99.90;;;;;;4954367;28;20065;-65
2022/03/04 06:14:26;;;;;;;30.50;22.23;;;9.60;99.90;;;;;;4940796;28;20061;-65
2022/03/04 06:16:53;;;;;;;32.03;22.95;;;9.60;99.90;;;;;;4951366;29;20043;-65
2022/03/04 06:19:20;;;;;;;33.63;23.08;;;9.60;99.90;;;;;;4954894;28;20495;-65
2022/03/04 06:21:51;;;;;;;33.78;24.65;;;9.60;99.90;;;;;;4955467;28;20047;-65
2022/03/04 06:24:18;;;;;;;33.47;24.65;;;9.60;99.90;;;;;;4969911;28;20051;-65
2022/03/04 06:26:45;;;;;;;37.78;25.95;;;9.60;99.90;;;;;;4969187;28;20594;-65
2022/03/04 06:29:12;;;;;;;32.92;22.58;;;9.60;99.90;;;;;;4955919;28;20039;-65
2022/03/04 06:31:42;;;;;;;39.47;25.33;;;9.60;99.90;;;;;;4968857;28;20051;-65
2022/03/04 06:34:09;;;;;;;33.80;23.27;;;9.60;99.90;;;;;;4953209;28;20058;-65
2022/03/04 06:36:37;;;;;;;35.22;23.83;;;9.60;99.90;;;;;;4953501;29;20513;-65
2022/03/04 06:39:04;;;;;;;38.55;23.42;;;9.60;99.90;;;;;;4954107;28;20511;-65
2022/03/04 06:41:31;;;;;;;33.00;22.83;;;9.60;99.90;;;;;;4961155;28;20488;-65
2022/03/04 06:44:01;;;;;;;32.45;24.25;;;9.60;99.90;;;;;;4962303;28;20070;-66
2022/03/04 06:46:28;;;;;;;34.58;23.48;;;9.60;99.90;;;;;;4956009;28;20542;-64
2022/03/04 06:48:55;;;;;;;32.35;23.98;;;9.60;99.90;;;;;;4960603;28;20116;-64
2022/03/04 06:51:22;;;;;;;36.63;26.05;;;9.60;99.90;;;;;;4940695;29;20093;-64
2022/03/04 06:53:49;;;;;;;32.08;24.10;;;9.60;99.90;;;;;;4985180;28;20566;-65
2022/03/04 06:56:17;;;;;;;31.80;24.13;;;9.60;99.90;;;;;;4954168;28;20051;-63
2022/03/04 06:58:49;;;;;;;33.58;27.13;;;9.70;99.90;;;;;;4957804;28;20062;-64
2022/03/04 07:01:16;;;;;;;35.25;26.58;;;9.60;99.90;;;;;;4978270;28;20051;-65
2022/03/04 07:03:43;;;;;;;38.33;28.35;;;9.60;99.90;;;;;;4973558;28;20086;-64
2022/03/04 07:06:10;;;;;;;34.58;25.15;;;9.70;99.90;;;;;;4953461;28;20051;-64
2022/03/04 07:08:37;;;;;;;39.33;28.38;;;9.70;99.90;;;;;;4953431;29;20052;-63
2022/03/04 07:11:04;;;;;;;38.08;27.05;;;9.70;99.90;;;;;;4965987;28;20743;-64
2022/03/04 07:13:32;;;;;;;36.88;26.00;;;9.80;99.90;;;;;;4968846;28;20046;-63
2022/03/04 07:16:00;;;;;;;37.58;28.10;;;9.80;99.90;;;;;;4984595;28;20059;-64
2022/03/04 07:18:29;;;;;;;37.80;25.70;;;9.80;99.90;;;;;;4968371;28;20082;-63
2022/03/04 07:21:00;;;;;;;41.00;29.95;;;9.90;99.90;;;;;;4985892;28;20467;-67
2022/03/04 07:23:26;;;;;;;40.03;29.13;;;9.80;99.90;;;;;;4963034;28;20047;-64
2022/03/04 07:25:53;;;;;;;90.20;73.55;;;9.90;99.90;;;;;;4955662;28;20061;-66
2022/03/04 07:28:20;;;;;;;40.47;32.42;;;10.00;99.90;;;;;;4959038;28;20046;-65
2022/03/04 07:30:49;;;;;;;38.30;28.92;;;10.00;99.90;;;;;;4984373;28;20053;-70
2022/03/04 07:33:16;;;;;;;38.23;29.40;;;10.00;99.90;;;;;;4969341;28;20427;-67
2022/03/04 07:35:45;;;;;;;38.83;29.30;;;10.10;99.90;;;;;;4964142;28;20054;-68
2022/03/04 07:38:13;;;;;;;41.38;29.63;;;10.10;99.90;;;;;;4919059;29;20083;-68
2022/03/04 07:40:44;;;;;;;37.60;27.38;;;10.10;99.90;;;;;;4942014;28;20530;-67
2022/03/04 07:43:11;;;;;;;39.25;29.08;;;10.10;99.90;;;;;;4971452;28;20093;-67
2022/03/04 07:45:38;;;;;;;33.63;25.48;;;10.20;99.90;;;;;;4956251;28;20411;-67
2022/03/04 07:48:08;;;;;;;41.00;26.02;;;10.30;99.90;;;;;;4951720;28;20510;-68
2022/03/04 07:50:35;;;;;;;33.42;23.58;;;10.30;99.90;;;;;;4983772;28;20043;-68
2022/03/04 07:53:02;;;;;;;29.70;20.60;;;10.30;99.90;;;;;;4963612;28;20054;-67
2022/03/04 07:55:29;;;;;;;26.08;18.48;;;10.30;99.90;;;;;;4955805;28;20043;-67
2022/03/04 07:57:56;;;;;;;27.77;17.65;;;10.40;99.90;;;;;;4967730;28;20177;-68
2022/03/04 08:00:24;;;;;;;26.63;17.15;;;10.40;99.90;;;;;;4951981;29;20150;-67
2022/03/04 08:02:52;;;;;;;22.15;15.68;;;10.40;99.90;;;;;;4952145;29;20055;-66
2022/03/04 08:05:20;;;;;;;22.10;15.38;;;10.40;99.90;;;;;;4942085;28;20047;-67
2022/03/04 08:07:47;;;;;;;21.60;16.08;;;10.50;99.90;;;;;;4944134;29;20058;-66
2022/03/04 08:10:15;;;;;;;23.15;16.05;;;10.50;99.90;;;;;;4944199;28;20062;-66
2022/03/04 08:12:42;;;;;;;26.45;16.98;;;10.50;99.90;;;;;;4942562;28;20051;-66
2022/03/04 08:15:10;;;;;;;25.30;15.38;;;10.60;99.90;;;;;;4958728;28;20435;-65
2022/03/04 08:17:39;;;;;;;21.40;15.15;;;10.60;99.90;;;;;;4957245;28;20051;-66
2022/03/04 08:20:06;;;;;;;18.52;13.38;;;10.60;99.90;;;;;;4943635;28;20055;-66
2022/03/04 08:22:33;;;;;;;27.98;15.15;;;10.60;99.90;;;;;;4955183;28;20077;-67
2022/03/04 08:25:01;;;;;;;23.25;15.65;;;10.70;99.90;;;;;;4948791;29;20385;-67
2022/03/04 08:27:37;;;;;;;22.00;15.90;;;10.70;99.90;;;;;;4934034;29;20159;-67
2022/03/04 08:30:08;;;;;;;23.63;16.25;;;10.70;99.90;;;;;;4917768;29;20134;-69
2022/03/04 08:32:35;;;;;;;23.60;16.88;;;10.70;99.90;;;;;;4937098;29;20118;-66
2022/03/04 08:35:03;;;;;;;24.17;16.27;;;10.80;99.90;;;;;;4938855;29;20142;-65
2022/03/04 08:37:30;;;;;;;25.58;16.88;;;10.90;99.90;;;;;;4955507;29;20094;-66
2022/03/04 08:39:57;;;;;;;25.60;17.00;;;10.90;99.90;;;;;;4987879;28;20043;-66
2022/03/04 08:42:24;;;;;;;26.98;17.88;;;10.90;99.90;;;;;;4964183;28;20055;-66
2022/03/04 08:44:55;;;;;;;140.18;109.93;;;11.00;99.90;;;;;;4955621;29;20521;-66
2022/03/04 08:47:22;;;;;;;31.00;22.13;;;11.00;99.90;;;;;;4939477;29;20503;-67
2022/03/04 08:49:49;;;;;;;22.90;16.52;;;11.10;99.90;;;;;;4956006;28;20055;-66
2022/03/04 08:52:16;;;;;;;21.98;14.73;;;11.20;99.90;;;;;;4939305;29;20055;-68
2022/03/04 08:54:43;;;;;;;21.83;15.57;;;11.20;99.90;;;;;;4957753;28;20226;-68
2022/03/04 08:57:10;;;;;;;18.52;14.23;;;11.20;99.90;;;;;;4956159;28;20130;-66
2022/03/04 08:59:38;;;;;;;26.02;16.58;;;11.30;99.90;;;;;;4957887;28;20086;-67
2022/03/04 09:02:05;;;;;;;20.90;14.70;;;11.30;99.90;;;;;;4944815;29;20047;-66
2022/03/04 09:04:33;;;;;;;20.40;15.13;;;11.40;99.90;;;;;;4959524;28;20619;-68
2022/03/04 09:07:00;;;;;;;21.70;14.55;;;11.30;99.90;;;;;;4956824;28;20081;-66
2022/03/04 09:09:28;;;;;;;25.08;15.68;;;11.40;99.90;;;;;;4956299;28;20062;-67
2022/03/04 09:11:55;;;;;;;20.88;16.55;;;11.40;99.90;;;;;;4955178;28;20054;-68
2022/03/04 09:14:23;;;;;;;25.50;17.13;;;11.40;99.90;;;;;;4970845;28;20098;-68
2022/03/04 09:16:53;;;;;;;23.25;16.90;;;11.40;99.90;;;;;;4966483;28;20122;-67
2022/03/04 09:19:20;;;;;;;27.75;17.35;;;11.40;99.90;;;;;;4965403;28;20146;-69
2022/03/04 09:22:08;;;;;;;58.42;43.42;;;11.40;99.90;;;;;;4974623;28;20065;-69
2022/03/04 09:24:35;;;;;;;27.50;18.65;;;11.50;99.90;;;;;;4957904;28;20058;-67
2022/03/04 09:27:02;;;;;;;25.88;16.10;;;11.50;99.90;;;;;;4986398;28;20045;-68
2022/03/04 09:29:29;;;;;;;24.73;15.55;;;11.50;99.90;;;;;;4986743;28;20495;-67
2022/03/04 09:31:56;;;;;;;20.77;14.75;;;11.50;99.90;;;;;;4959785;28;20175;-67
2022/03/04 09:34:23;;;;;;;23.15;14.32;;;11.50;99.90;;;;;;4955562;28;20070;-68
2022/03/04 09:36:50;;;;;;;20.00;15.18;;;11.60;99.90;;;;;;4954569;29;20055;-67
2022/03/04 09:39:17;;;;;;;27.20;15.70;;;11.60;99.90;;;;;;4956090;29;20137;-67
2022/03/04 09:41:45;;;;;;;27.60;16.63;;;11.60;99.90;;;;;;4938575;29;20043;-67
2022/03/04 09:44:12;;;;;;;24.73;15.10;;;11.70;99.90;;;;;;4955053;29;20122;-68
2022/03/04 09:46:45;;;;;;;24.80;13.60;;;11.70;99.90;;;;;;4938295;29;20055;-67
2022/03/04 09:49:16;;;;;;;28.38;16.73;;;11.80;99.90;;;;;;4956186;28;20051;-67
2022/03/04 09:51:44;;;;;;;33.55;17.52;;;11.70;99.90;;;;;;4938690;29;20062;-69
2022/03/04 09:54:11;;;;;;;26.95;17.55;;;11.60;99.90;;;;;;4954614;29;20086;-67
2022/03/04 09:56:38;;;;;;;29.02;18.52;;;11.50;99.90;;;;;;4938166;29;20063;-67
2022/03/04 09:59:05;;;;;;;33.30;19.98;;;11.40;99.90;;;;;;4954391;29;20055;-68
2022/03/04 10:01:32;;;;;;;29.33;18.58;;;11.20;99.90;;;;;;4954564;28;20054;-67
2022/03/04 10:03:59;;;;;;;29.55;19.30;;;11.10;99.90;;;;;;4953901;29;20134;-67
2022/03/04 10:06:26;;;;;;;34.83;20.63;;;11.10;99.90;;;;;;4957329;28;20055;-67
2022/03/04 10:08:53;;;;;;;34.33;21.58;;;11.00;99.90;;;;;;4956335;28;20051;-67
2022/03/04 10:11:29;;;;;;;44.30;21.33;;;11.00;99.90;;;;;;4942629;29;20129;-67
2022/03/04 10:13:59;;;;;;;31.90;21.13;;;11.00;99.90;;;;;;4923282;29;20059;-67
2022/03/04 10:16:30;;;;;;;27.33;19.40;;;11.00;99.90;;;;;;4954868;28;20043;-67
2022/03/04 10:19:07;;;;;;;127.95;106.78;;;10.90;99.90;;;;;;4954883;28;20047;-68
2022/03/04 10:22:12;;;;;;;50.00;32.42;;;10.90;99.90;;;;;;4955187;28;20543;-67
2022/03/04 10:24:39;;;;;;;31.63;24.08;;;10.90;99.90;;;;;;4898630;29;20056;-66
2022/03/04 10:27:07;;;;;;;26.63;18.40;;;10.80;99.90;;;;;;4898031;29;20047;-67
2022/03/04 10:29:46;;;;;;;81.53;54.13;;;10.80;99.90;;;;;;4915613;29;20051;-67
2022/03/04 10:32:20;;;;;;;36.28;23.85;;;10.80;99.90;;;;;;4952825;28;20134;-68
2022/03/04 10:34:59;;;;;;;30.13;20.92;;;10.80;99.90;;;;;;4955275;28;20147;-68
2022/03/04 10:37:54;;;;;;;29.70;19.60;;;10.80;99.90;;;;;;4920440;29;20502;-70
2022/03/04 10:40:29;;;;;;;29.55;19.55;;;10.90;99.90;;;;;;4950673;29;20135;-68
2022/03/04 10:43:02;;;;;;;28.83;19.17;;;10.80;99.90;;;;;;4933779;29;20118;-69
2022/03/04 10:45:36;;;;;;;29.05;20.58;;;10.80;99.90;;;;;;4951415;29;20078;-69
2022/03/04 10:48:07;;;;;;;34.45;22.20;;;10.70;99.90;;;;;;4952127;28;20071;-69
2022/03/04 10:50:48;;;;;;;30.50;22.17;;;10.70;99.90;;;;;;4920039;29;20648;-68
2022/03/04 10:53:16;;;;;;;32.83;20.38;;;10.60;99.90;;;;;;4937757;29;20491;-68
2022/03/04 10:55:45;;;;;;;28.67;21.30;;;10.70;99.90;;;;;;4953451;29;20137;-68
2022/03/04 10:58:19;;;;;;;38.60;28.83;;;10.60;99.90;;;;;;4952782;28;20043;-69
2022/03/04 11:00:53;;;;;;;27.83;21.25;;;10.70;99.90;;;;;;4953060;29;20133;-68
2022/03/04 11:03:28;;;;;;;28.02;20.95;;;10.70;99.90;;;;;;4953670;28;20047;-68
2022/03/04 11:05:58;;;;;;;26.40;18.65;;;10.70;99.90;;;;;;4940168;28;20047;-69
2022/03/04 11:08:25;;;;;;;24.48;19.02;;;10.70;99.90;;;;;;4983524;28;20055;-71
2022/03/04 11:10:53;;;;;;;223.93;172.68;;;10.70;99.90;;;;;;4951517;29;20110;-67
2022/03/04 11:13:21;;;;;;;33.70;26.58;;;10.70;99.90;;;;;;4943165;29;20162;-71
2022/03/04 11:15:48;;;;;;;33.15;20.00;;;10.70;99.90;;;;;;4968083;28;20051;-70
2022/03/04 11:18:19;;;;;;;24.80;20.00;;;10.70;99.90;;;;;;4952770;29;20571;-72
2022/03/04 11:20:48;;;;;;;28.13;18.27;;;10.70;99.90;;;;;;4951925;29;20557;-68
2022/03/04 11:23:19;;;;;;;35.72;19.90;;;10.70;99.90;;;;;;4986897;28;20130;-67
2022/03/04 11:25:53;;;;;;;30.67;21.42;;;10.70;99.90;;;;;;4955626;28;20748;-67
2022/03/04 11:28:20;;;;;;;28.88;20.80;;;10.70;99.90;;;;;;4954737;28;20043;-69
2022/03/04 11:30:49;;;;;;;26.58;20.05;;;10.60;99.90;;;;;;4959161;28;20110;-68
2022/03/04 11:33:26;;;;;;;24.92;18.38;;;10.60;99.90;;;;;;4943406;28;20049;-69
2022/03/04 11:35:57;;;;;;;22.70;16.67;;;10.60;99.90;;;;;;4940844;29;20498;-68
2022/03/04 11:38:46;;;;;;;21.88;16.42;;;10.50;99.90;;;;;;4940205;28;20043;-68
2022/03/04 11:41:16;;;;;;;21.00;16.23;;;10.40;99.90;;;;;;4953540;29;20065;-70
2022/03/04 11:44:00;;;;;;;25.33;17.17;;;10.50;99.90;;;;;;4937699;28;20067;-68
2022/03/04 11:47:01;;;;;;;21.10;17.20;;;10.40;99.90;;;;;;4963883;28;20391;-70
2022/03/04 11:49:48;;;;;;;20.50;15.55;;;10.50;99.90;;;;;;4965174;28;20086;-69
2022/03/04 11:52:24;;;;;;;20.17;14.55;;;10.40;99.90;;;;;;4934039;29;20087;-68
2022/03/04 11:54:51;;;;;;;19.10;15.05;;;10.40;99.90;;;;;;4940417;29;20513;-70
2022/03/04 11:57:37;;;;;;;19.75;14.95;;;10.40;99.90;;;;;;4957231;28;20122;-69
2022/03/04 12:00:14;;;;;;;18.67;14.75;;;10.40;99.90;;;;;;4948916;29;20055;-68
2022/03/04 12:02:47;;;;;;;122.47;65.32;;;10.40;99.90;;;;;;4951775;28;20142;-70
2022/03/04 12:05:18;;;;;;;153.18;132.57;;;10.40;99.90;;;;;;4939859;29;20071;-68
2022/03/04 12:07:47;;;;;;;48.05;37.42;;;10.40;99.90;;;;;;4949000;28;20051;-67
2022/03/04 12:10:21;;;;;;;24.15;20.00;;;10.40;99.90;;;;;;4936221;29;20054;-72
2022/03/04 12:13:01;;;;;;;19.23;16.20;;;10.40;99.90;;;;;;4962425;28;20157;-71
2022/03/04 12:15:28;;;;;;;18.30;14.60;;;10.40;99.90;;;;;;4951632;28;20458;-67
2022/03/04 12:17:59;;;;;;;16.35;12.85;;;10.30;99.90;;;;;;4951589;28;20069;-69
2022/03/04 12:20:51;;;;;;;17.38;13.52;;;10.30;99.90;;;;;;4950774;28;20063;-66
2022/03/04 12:23:39;;;;;;;14.02;11.50;;;10.30;99.90;;;;;;4951798;28;20051;-72
2022/03/04 12:26:33;;;;;;;13.60;10.70;;;10.20;99.90;;;;;;4953648;28;20499;-69
2022/03/04 12:29:09;;;;;;;15.02;10.43;;;10.20;99.90;;;;;;4978150;28;20148;-69
2022/03/04 12:31:40;;;;;;;14.07;11.00;;;10.20;99.90;;;;;;4956412;28;20559;-70
2022/03/04 12:34:16;;;;;;;13.30;11.23;;;10.20;99.90;;;;;;4950311;28;20057;-68
2022/03/04 12:36:44;;;;;;;15.80;10.98;;;10.10;99.90;;;;;;4962789;28;20081;-68
2022/03/04 12:39:11;;;;;;;14.35;11.32;;;10.10;99.90;;;;;;4954729;28;20050;-67